createdAt,value
2019-01-05T00:00:49.211Z,36.83
2019-01-05T00:03:45.977Z,35.13
2019-01-05T00:06:36.636Z,41.97
2019-01-05T00:09:26.278Z,37.73
2019-01-05T00:12:14.855Z,38.63
2019-01-05T00:15:07.671Z,39.17
2019-01-05T00:17:54.269Z,37.90
2019-01-05T00:20:51.192Z,38.53
2019-01-05T00:23:31.279Z,38.10
2019-01-05T00:26:20.154Z,35.93
2019-01-05T00:29:09.580Z,39.73
2019-01-05T00:32:00.689Z,38.03
2019-01-05T00:34:59.487Z,36.43
2019-01-05T00:38:05.986Z,37.50
2019-01-05T00:41:01.488Z,39.93
2019-01-05T00:43:49.547Z,36.70
2019-01-05T00:46:36.225Z,37.57
2019-01-05T00:49:28.387Z,37.43
2019-01-05T00:52:18.278Z,37.60
2019-01-05T00:55:13.968Z,39.03
2019-01-05T00:58:00.529Z,40.23
2019-01-05T01:00:51.551Z,39.70
2019-01-05T01:03:51.325Z,38.80
2019-01-05T01:06:39.932Z,37.33
2019-01-05T01:09:26.640Z,39.47
2019-01-05T01:12:13.533Z,39.50
2019-01-05T01:15:04.909Z,39.17
2019-01-05T01:17:57.195Z,39.30
2019-01-05T01:20:44.949Z,41.13
2019-01-05T01:23:32.052Z,41.63
2019-01-05T01:26:26.485Z,43.80
2019-01-05T01:29:29.332Z,40.73
2019-01-05T01:32:20.149Z,42.00
2019-01-05T01:35:04.287Z,42.53
2019-01-05T01:38:37.026Z,43.50
2019-01-05T01:41:27.536Z,41.23
2019-01-05T01:44:16.563Z,42.00
2019-01-05T01:47:16.895Z,40.07
2019-01-05T01:50:03.489Z,41.07
2019-01-05T01:52:51.265Z,41.17
2019-01-05T01:55:38.311Z,45.83
2019-01-05T01:58:35.293Z,44.37
2019-01-05T02:01:32.584Z,40.63
2019-01-05T02:04:23.378Z,41.80
2019-01-05T02:07:11.131Z,43.10
2019-01-05T02:10:05.034Z,42.37
2019-01-05T02:13:02.416Z,39.63
2019-01-05T02:16:02.883Z,41.77
2019-01-05T02:19:38.005Z,43.37
2019-01-05T02:22:55.440Z,45.43
2019-01-05T02:26:16.058Z,43.67
2019-01-05T02:29:58.954Z,40.70
2019-01-05T02:33:06.907Z,43.80
2019-01-05T02:36:27.535Z,43.27
2019-01-05T02:39:51.033Z,42.83
2019-01-05T02:43:04.496Z,42.90
2019-01-05T02:46:43.070Z,46.33
2019-01-05T02:50:33.737Z,45.77
2019-01-05T02:53:48.682Z,43.33
2019-01-05T02:57:19.503Z,46.97
2019-01-05T03:00:25.028Z,41.93
2019-01-05T03:03:37.988Z,44.03
2019-01-05T03:07:13.015Z,44.40
2019-01-05T03:10:31.028Z,46.73
2019-01-05T03:14:23.720Z,43.50
2019-01-05T03:17:31.409Z,43.63
2019-01-05T03:20:54.657Z,44.37
2019-01-05T03:24:22.084Z,43.53
2019-01-05T03:28:03.075Z,45.00
2019-01-05T03:31:23.258Z,44.90
2019-01-05T03:35:00.249Z,43.13
2019-01-05T03:38:53.499Z,41.13
2019-01-05T03:42:16.576Z,43.83
2019-01-05T03:45:59.682Z,49.10
2019-01-05T03:49:09.537Z,45.87
2019-01-05T03:52:46.419Z,46.83
2019-01-05T03:56:38.595Z,45.70
2019-01-05T04:00:20.733Z,49.03
2019-01-05T04:03:50.089Z,43.40
2019-01-05T04:07:39.404Z,49.97
2019-01-05T04:11:16.373Z,42.37
2019-01-05T04:14:51.270Z,46.43
2019-01-05T04:18:15.448Z,48.50
2019-01-05T04:22:16.988Z,44.53
2019-01-05T04:25:45.056Z,45.90
2019-01-05T04:29:35.096Z,42.83
2019-01-05T04:33:04.974Z,42.53
2019-01-05T04:36:31.905Z,40.07
2019-01-05T04:40:18.880Z,41.60
2019-01-05T04:43:34.876Z,40.77
2019-01-05T04:47:10.615Z,41.17
2019-01-05T04:50:40.875Z,43.97
2019-01-05T04:54:25.203Z,40.10
2019-01-05T04:57:37.173Z,36.37
2019-01-05T05:01:20.278Z,35.53
2019-01-05T05:04:50.533Z,39.73
2019-01-05T05:08:01.980Z,37.07
2019-01-05T05:11:27.857Z,36.53
2019-01-05T05:15:09.965Z,36.27
2019-01-05T05:18:57.504Z,35.00
2019-01-05T05:22:27.404Z,35.77
2019-01-05T05:25:48.222Z,33.93
2019-01-05T05:29:30.207Z,31.17
2019-01-05T05:33:06.522Z,32.10
2019-01-05T05:36:39.636Z,31.60
2019-01-05T05:40:20.749Z,33.37
2019-01-05T05:43:57.029Z,32.07
2019-01-05T05:47:19.553Z,30.03
2019-01-05T05:50:37.570Z,30.27
2019-01-05T05:53:59.881Z,31.87
2019-01-05T05:57:34.939Z,26.27
2019-01-05T06:00:59.960Z,27.87
2019-01-05T06:04:36.803Z,26.37
2019-01-05T06:07:58.361Z,21.77
2019-01-05T06:11:27.899Z,19.83
2019-01-05T06:15:06.642Z,19.10
2019-01-05T06:18:44.770Z,18.00
2019-01-05T06:22:31.649Z,17.67
2019-01-05T06:26:14.698Z,15.87
2019-01-05T06:29:49.587Z,16.17
2019-01-05T06:33:25.334Z,15.47
2019-01-05T06:37:18.711Z,14.70
2019-01-05T06:40:32.454Z,15.43
2019-01-05T06:44:31.309Z,14.40
2019-01-05T06:48:01.852Z,13.13
2019-01-05T06:51:40.577Z,14.77
2019-01-05T06:55:00.841Z,12.93
2019-01-05T06:58:46.131Z,13.90
2019-01-05T07:02:33.234Z,14.90
2019-01-05T07:06:05.869Z,13.77
2019-01-05T07:09:28.708Z,14.33
2019-01-05T07:13:21.960Z,11.03
2019-01-05T07:17:15.626Z,12.90
2019-01-05T07:20:47.902Z,12.07
2019-01-05T07:24:19.419Z,19.23
2019-01-05T07:27:53.315Z,15.77
2019-01-05T07:31:09.450Z,11.90
2019-01-05T07:34:34.158Z,13.87
2019-01-05T07:38:09.690Z,12.20
2019-01-05T07:41:36.457Z,11.50
2019-01-05T07:44:52.705Z,11.90
2019-01-05T07:48:32.867Z,12.20
2019-01-05T07:51:55.568Z,12.23
2019-01-05T07:55:19.656Z,14.97
2019-01-05T07:59:24.833Z,10.07
2019-01-05T08:02:52.456Z,14.17
2019-01-05T08:06:41.517Z,12.53
2019-01-05T08:10:03.060Z,12.17
2019-01-05T08:13:29.749Z,14.47
2019-01-05T08:16:57.768Z,13.93
2019-01-05T08:20:28.913Z,16.00
2019-01-05T08:24:02.226Z,17.07
2019-01-05T08:27:32.054Z,16.03
2019-01-05T08:31:10.619Z,17.73
2019-01-05T08:34:32.614Z,17.00
2019-01-05T08:38:05.872Z,17.93
2019-01-05T08:41:39.000Z,17.17
2019-01-05T08:44:58.499Z,20.07
2019-01-05T08:48:25.310Z,18.50
2019-01-05T08:51:39.673Z,19.07
2019-01-05T08:55:10.742Z,22.67
2019-01-05T08:58:37.576Z,18.93
2019-01-05T09:02:35.541Z,21.70
2019-01-05T09:06:20.426Z,21.40
2019-01-05T09:09:53.585Z,23.40
2019-01-05T09:13:25.046Z,19.90
2019-01-05T09:16:58.813Z,21.43
2019-01-05T09:20:36.616Z,24.00
2019-01-05T09:24:12.245Z,22.27
2019-01-05T09:27:47.606Z,20.77
2019-01-05T09:31:11.961Z,21.67
2019-01-05T09:34:34.574Z,25.23
2019-01-05T09:38:00.185Z,25.27
2019-01-05T09:41:21.419Z,24.17
2019-01-05T09:44:39.447Z,22.53
2019-01-05T09:48:21.697Z,26.57
2019-01-05T09:52:05.530Z,24.20
2019-01-05T09:55:44.460Z,25.63
2019-01-05T09:59:10.478Z,27.53
2019-01-05T10:02:48.511Z,28.73
2019-01-05T10:06:26.795Z,30.73
2019-01-05T10:09:53.426Z,28.90
2019-01-05T10:13:21.680Z,26.53
2019-01-05T10:16:48.216Z,26.40
2019-01-05T10:20:05.460Z,27.17
2019-01-05T10:23:35.582Z,26.00
2019-01-05T10:27:08.930Z,29.50
2019-01-05T10:30:47.766Z,29.13
2019-01-05T10:34:17.695Z,23.87
2019-01-05T10:37:39.850Z,25.77
2019-01-05T10:41:02.842Z,29.70
2019-01-05T10:44:28.035Z,23.37
2019-01-05T10:47:36.580Z,25.30
2019-01-05T10:51:18.653Z,21.37
2019-01-05T10:54:53.556Z,23.30
2019-01-05T10:58:16.895Z,25.53
2019-01-05T11:01:36.874Z,28.40
2019-01-05T11:04:55.485Z,25.27
2019-01-05T11:08:29.127Z,25.33
2019-01-05T11:12:12.249Z,23.60
2019-01-05T11:15:42.743Z,22.67
2019-01-05T11:19:22.536Z,20.30
2019-01-05T11:23:02.926Z,22.00
2019-01-05T11:26:21.555Z,23.67
2019-01-05T11:29:55.010Z,22.43
2019-01-05T11:33:34.530Z,21.80
2019-01-05T11:37:31.741Z,23.47
2019-01-05T11:40:57.608Z,31.73
2019-01-05T11:44:14.501Z,28.73
2019-01-05T11:47:15.265Z,27.67
2019-01-05T11:50:48.048Z,33.97
2019-01-05T11:54:06.819Z,28.27
2019-01-05T11:57:50.079Z,30.73
2019-01-05T12:01:06.259Z,28.83
2019-01-05T12:05:01.561Z,30.60
2019-01-05T12:08:44.591Z,41.23
2019-01-05T12:12:07.702Z,25.57
2019-01-05T12:15:47.693Z,25.37
2019-01-05T12:19:21.148Z,25.73
2019-01-05T12:22:43.927Z,23.33
2019-01-05T12:26:26.071Z,23.57
2019-01-05T12:29:48.080Z,29.37
2019-01-05T12:33:14.213Z,21.27
2019-01-05T12:37:16.916Z,35.73
2019-01-05T12:40:33.026Z,22.77
2019-01-05T12:44:25.209Z,20.47
2019-01-05T12:47:47.641Z,18.00
2019-01-05T12:50:58.199Z,98.53
2019-01-05T12:54:04.384Z,22.17
2019-01-05T12:57:34.136Z,13.07
2019-01-05T13:01:10.811Z,14.43
2019-01-05T13:05:00.543Z,14.30
2019-01-05T13:08:22.354Z,10.60
2019-01-05T13:11:45.141Z,14.57
2019-01-05T13:15:18.491Z,8.13
2019-01-05T13:18:54.750Z,9.53
2019-01-05T13:22:25.006Z,8.77
2019-01-05T13:26:11.703Z,6.83
2019-01-05T13:29:35.192Z,8.27
2019-01-05T13:33:10.094Z,9.20
2019-01-05T13:36:52.575Z,5.87
2019-01-05T13:40:50.901Z,6.20
2019-01-05T13:44:39.392Z,6.57
2019-01-05T13:48:28.598Z,5.00
2019-01-05T13:51:52.673Z,6.43
2019-01-05T13:54:50.806Z,5.03
2019-01-05T13:57:40.953Z,6.43
2019-01-05T14:00:21.101Z,6.10
2019-01-05T14:03:18.385Z,5.40
2019-01-05T14:06:05.992Z,5.77
2019-01-05T14:09:13.549Z,3.77
2019-01-05T14:12:09.893Z,4.20
2019-01-05T14:15:03.846Z,3.43
2019-01-05T14:17:58.936Z,3.57
2019-01-05T14:20:47.087Z,3.00
2019-01-05T14:23:34.436Z,2.53
2019-01-05T14:26:25.387Z,1.73
2019-01-05T14:29:13.721Z,1.70
2019-01-05T14:32:00.338Z,1.20
2019-01-05T14:34:51.415Z,0.93
2019-01-05T14:37:37.298Z,1.20
2019-01-05T14:40:24.941Z,1.63
2019-01-05T14:43:11.934Z,2.10
2019-01-05T14:46:00.577Z,2.43
2019-01-05T14:48:50.298Z,3.50
2019-01-05T14:51:57.084Z,2.17
2019-01-05T14:54:46.001Z,1.17
2019-01-05T14:57:50.910Z,2.80
2019-01-05T15:00:36.092Z,3.97
2019-01-05T15:03:23.206Z,2.13
2019-01-05T15:06:09.875Z,1.20
2019-01-05T15:09:15.911Z,1.10
2019-01-05T15:12:05.921Z,1.07
2019-01-05T15:14:55.186Z,0.97
2019-01-05T15:17:55.482Z,1.87
2019-01-05T15:20:42.156Z,1.43
2019-01-05T15:23:42.057Z,0.90
2019-01-05T15:26:28.869Z,1.60
2019-01-05T15:29:15.496Z,1.73
2019-01-05T15:32:03.506Z,1.43
2019-01-05T15:34:50.395Z,1.07
2019-01-05T15:37:41.142Z,1.30
2019-01-05T15:40:35.043Z,1.30
2019-01-05T15:43:29.093Z,2.30
2019-01-05T15:46:42.484Z,1.20
2019-01-05T15:49:24.540Z,1.10
2019-01-05T15:52:12.702Z,1.70
2019-01-05T15:55:06.769Z,1.67
2019-01-05T15:57:53.333Z,1.50
2019-01-05T16:00:40.536Z,1.43
2019-01-05T16:03:32.687Z,1.30
2019-01-05T16:06:27.000Z,1.10
2019-01-05T16:09:16.636Z,1.30
2019-01-05T16:12:04.089Z,1.90
2019-01-05T16:14:54.234Z,1.20
2019-01-05T16:17:39.304Z,1.20
2019-01-05T16:20:38.036Z,1.00
2019-01-05T16:23:37.901Z,3.53
2019-01-05T16:26:38.086Z,11.83
2019-01-05T16:29:26.764Z,5.73
2019-01-05T16:32:13.315Z,4.87
2019-01-05T16:34:59.891Z,2.77
2019-01-05T16:37:47.033Z,3.10
2019-01-05T16:40:33.667Z,3.30
2019-01-05T16:43:26.694Z,5.17
2019-01-05T16:46:26.805Z,2.50
2019-01-05T16:49:29.825Z,3.10
2019-01-05T16:52:38.702Z,1.77
2019-01-05T16:55:29.047Z,2.10
2019-01-05T16:58:36.840Z,3.50
2019-01-05T17:01:33.773Z,1.60
2019-01-05T17:04:35.349Z,1.60
2019-01-05T17:07:43.308Z,5.93
2019-01-05T17:10:31.372Z,3.80
2019-01-05T17:13:31.366Z,2.13
2019-01-05T17:16:17.046Z,4.03
2019-01-05T17:19:05.185Z,1.50
2019-01-05T17:22:07.171Z,1.33
2019-01-05T17:24:53.767Z,1.57
2019-01-05T17:27:42.359Z,1.20
2019-01-05T17:30:33.011Z,1.47
2019-01-05T17:33:33.678Z,1.40
2019-01-05T17:36:24.015Z,1.20
2019-01-05T17:39:27.314Z,1.30
2019-01-05T17:42:16.228Z,2.63
2019-01-05T17:45:22.946Z,1.27
2019-01-05T17:48:25.175Z,1.30
2019-01-05T17:51:22.051Z,1.03
2019-01-05T17:54:12.572Z,1.30
2019-01-05T17:56:46.807Z,2.27
2019-01-05T17:59:54.137Z,3.40
2019-01-05T18:03:03.803Z,1.47
2019-01-05T18:05:52.425Z,1.57
2019-01-05T18:08:29.416Z,1.00
2019-01-05T18:11:10.052Z,4.07
2019-01-05T18:13:57.863Z,2.00
2019-01-05T18:16:44.922Z,1.17
2019-01-05T18:19:44.396Z,1.70
2019-01-05T18:22:36.244Z,2.40
2019-01-05T18:25:36.559Z,1.40
2019-01-05T18:28:25.640Z,1.70
2019-01-05T18:31:12.829Z,2.03
2019-01-05T18:33:59.547Z,2.17
2019-01-05T18:36:48.485Z,1.47
2019-01-05T18:39:39.241Z,2.27
2019-01-05T18:42:45.627Z,1.57
2019-01-05T18:45:32.584Z,1.90
2019-01-05T18:48:20.754Z,1.50
2019-01-05T18:51:11.411Z,1.70
2019-01-05T18:54:12.010Z,1.53
2019-01-05T18:56:58.981Z,2.00
2019-01-05T18:59:56.187Z,3.10
2019-01-05T19:02:47.084Z,3.10
2019-01-05T19:05:35.018Z,3.47
2019-01-05T19:08:23.991Z,9.40
2019-01-05T19:11:10.794Z,5.43
2019-01-05T19:14:11.253Z,3.60
2019-01-05T19:17:02.460Z,17.30
2019-01-05T19:19:54.485Z,5.47
2019-01-05T19:22:57.503Z,4.67
2019-01-05T19:25:44.619Z,3.70
2019-01-05T19:28:22.488Z,3.30
2019-01-05T19:31:11.221Z,2.60
2019-01-05T19:34:02.357Z,2.73
2019-01-05T19:36:53.044Z,3.53
2019-01-05T19:39:39.684Z,2.70
2019-01-05T19:42:28.188Z,2.63
2019-01-05T19:45:17.499Z,2.90
2019-01-05T19:48:04.167Z,2.27
2019-01-05T19:50:51.449Z,2.43
2019-01-05T19:53:46.089Z,3.30
2019-01-05T19:56:34.308Z,2.20
2019-01-05T19:59:20.257Z,2.17
2019-01-05T20:02:26.720Z,2.67
2019-01-05T20:05:17.943Z,4.37
2019-01-05T20:08:13.312Z,2.93
2019-01-05T20:11:03.422Z,3.33
2019-01-05T20:13:46.546Z,2.27
2019-01-05T20:16:36.904Z,2.77
2019-01-05T20:19:25.115Z,2.80
2019-01-05T20:22:16.593Z,1.90
2019-01-05T20:25:27.635Z,3.23
2019-01-05T20:28:32.253Z,3.30
2019-01-05T20:31:17.174Z,2.40
2019-01-05T20:34:08.350Z,2.77
2019-01-05T20:36:59.547Z,2.00
2019-01-05T20:39:53.818Z,1.80
2019-01-05T20:43:02.237Z,3.10
2019-01-05T20:46:00.528Z,2.40
2019-01-05T20:48:45.610Z,2.27
2019-01-05T20:51:42.236Z,2.80
2019-01-05T20:54:38.755Z,2.37
2019-01-05T20:57:25.474Z,3.30
2019-01-05T21:00:12.331Z,2.40
2019-01-05T21:03:32.228Z,1.93
2019-01-05T21:06:20.128Z,2.07
2019-01-05T21:09:14.159Z,1.90
2019-01-05T21:12:03.587Z,1.73
2019-01-05T21:14:58.811Z,2.23
2019-01-05T21:17:52.656Z,1.80
2019-01-05T21:20:55.623Z,3.70
2019-01-05T21:23:55.817Z,2.33
2019-01-05T21:26:43.803Z,3.43
2019-01-05T21:29:44.120Z,1.97
2019-01-05T21:32:32.910Z,1.60
2019-01-05T21:35:25.267Z,2.10
2019-01-05T21:38:20.883Z,1.97
2019-01-05T21:41:15.734Z,2.20
2019-01-05T21:44:09.920Z,2.23
2019-01-05T21:46:56.474Z,1.90
2019-01-05T21:49:53.695Z,1.77
2019-01-05T21:52:44.634Z,2.10
2019-01-05T21:55:41.416Z,3.37
2019-01-05T21:58:34.073Z,3.30
2019-01-05T22:01:22.713Z,2.97
2019-01-05T22:04:19.990Z,4.63
2019-01-05T22:07:13.018Z,2.27
2019-01-05T22:09:55.546Z,2.30
2019-01-05T22:13:04.182Z,2.70
2019-01-05T22:15:53.766Z,2.60
2019-01-05T22:18:40.414Z,3.60
2019-01-05T22:21:27.229Z,4.13
2019-01-05T22:24:23.882Z,3.10
2019-01-05T22:27:10.668Z,4.20
2019-01-05T22:30:05.186Z,2.50
2019-01-05T22:32:54.828Z,3.10
2019-01-05T22:35:52.695Z,3.03
2019-01-05T22:38:43.643Z,3.90
2019-01-05T22:41:31.766Z,3.90
2019-01-05T22:44:18.529Z,2.60
2019-01-05T22:47:24.140Z,3.03
2019-01-05T22:50:10.387Z,3.10
2019-01-05T22:53:02.789Z,3.50
2019-01-05T22:55:53.780Z,4.83
2019-01-05T22:58:40.366Z,6.70
2019-01-05T23:01:37.519Z,4.13
2019-01-05T23:04:37.545Z,5.43
2019-01-05T23:07:34.919Z,5.53
2019-01-05T23:10:41.212Z,4.13
2019-01-05T23:13:28.037Z,4.13
2019-01-05T23:16:10.143Z,3.47
2019-01-05T23:19:03.493Z,4.40
2019-01-05T23:22:06.128Z,4.47
2019-01-05T23:24:52.889Z,3.80
2019-01-05T23:27:39.835Z,4.07
2019-01-05T23:30:37.267Z,2.93
2019-01-05T23:33:22.419Z,3.30
2019-01-05T23:36:19.377Z,3.83
2019-01-05T23:39:21.195Z,3.97
2019-01-05T23:42:08.026Z,4.77
2019-01-05T23:44:56.997Z,3.40
2019-01-05T23:47:43.875Z,4.97
2019-01-05T23:50:30.802Z,3.03
2019-01-05T23:53:13.877Z,3.33
2019-01-05T23:56:00.416Z,4.27
2019-01-05T23:58:47.357Z,3.17
